createdAt,value
2017-12-26T00:01:18.812Z,8.95
2017-12-26T00:03:47.682Z,9.63
2017-12-26T00:06:16.837Z,9.38
2017-12-26T00:08:44.801Z,7.87
2017-12-26T00:11:12.848Z,9.02
2017-12-26T00:13:40.861Z,7.40
2017-12-26T00:16:10.576Z,8.02
2017-12-26T00:18:39.261Z,8.93
2017-12-26T00:21:07.997Z,9.23
2017-12-26T00:23:35.890Z,9.57
2017-12-26T00:26:07.844Z,9.48
2017-12-26T00:28:35.787Z,9.05
2017-12-26T00:31:03.763Z,9.65
2017-12-26T00:33:31.692Z,9.13
2017-12-26T00:36:00.442Z,7.40
2017-12-26T00:38:28.365Z,9.77
2017-12-26T00:40:56.365Z,8.85
2017-12-26T00:43:24.574Z,9.20
2017-12-26T00:45:53.471Z,9.35
2017-12-26T00:48:21.385Z,9.40
2017-12-26T00:50:49.348Z,8.80
2017-12-26T00:53:17.260Z,9.40
2017-12-26T00:55:45.229Z,10.05
2017-12-26T00:58:13.164Z,8.90
2017-12-26T01:00:41.135Z,9.88
2017-12-26T01:03:09.060Z,9.13
2017-12-26T01:05:37.047Z,8.40
2017-12-26T01:08:04.977Z,9.95
2017-12-26T01:10:32.919Z,8.45
2017-12-26T01:13:00.854Z,8.65
2017-12-26T01:15:29.582Z,9.75
2017-12-26T01:17:57.627Z,9.57
2017-12-26T01:20:25.605Z,9.82
2017-12-26T01:22:53.508Z,8.30
2017-12-26T01:25:21.462Z,9.50
2017-12-26T01:27:49.382Z,9.52
2017-12-26T01:30:17.357Z,9.60
2017-12-26T01:32:46.098Z,9.45
2017-12-26T01:35:14.019Z,10.68
2017-12-26T01:37:42.749Z,10.93
2017-12-26T01:40:10.661Z,9.38
2017-12-26T01:42:38.681Z,10.38
2017-12-26T01:45:06.618Z,11.30
2017-12-26T01:47:35.483Z,10.70
2017-12-26T01:50:03.434Z,10.25
2017-12-26T01:52:31.424Z,11.57
2017-12-26T01:54:59.325Z,9.90
2017-12-26T01:57:28.074Z,11.55
2017-12-26T01:59:55.986Z,9.68
2017-12-26T02:02:24.010Z,11.15
2017-12-26T02:04:51.928Z,11.20
2017-12-26T02:07:20.666Z,10.95
2017-12-26T02:09:49.561Z,10.95
2017-12-26T02:12:17.548Z,11.10
2017-12-26T02:14:45.556Z,10.50
2017-12-26T02:17:13.581Z,10.65
2017-12-26T02:19:41.524Z,10.73
2017-12-26T02:22:09.503Z,10.98
2017-12-26T02:24:37.446Z,11.25
2017-12-26T02:27:05.420Z,10.63
2017-12-26T02:29:33.335Z,10.70
2017-12-26T02:32:01.304Z,13.18
2017-12-26T02:34:29.224Z,11.38
2017-12-26T02:36:57.143Z,12.60
2017-12-26T02:39:25.113Z,11.95
2017-12-26T02:41:53.038Z,12.27
2017-12-26T02:44:21.030Z,11.80
2017-12-26T02:46:52.560Z,13.88
2017-12-26T02:49:20.524Z,12.93
2017-12-26T02:51:48.450Z,12.07
2017-12-26T02:54:16.413Z,13.80
2017-12-26T02:56:44.327Z,12.95
2017-12-26T02:59:12.298Z,13.45
2017-12-26T03:01:40.210Z,13.82
2017-12-26T03:04:08.251Z,14.77
2017-12-26T03:06:36.170Z,14.50
2017-12-26T03:09:04.230Z,13.55
2017-12-26T03:11:32.153Z,13.18
2017-12-26T03:14:00.126Z,13.38
2017-12-26T03:16:33.717Z,15.52
2017-12-26T03:19:01.798Z,15.60
2017-12-26T03:21:29.718Z,14.10
2017-12-26T03:23:57.696Z,14.77
2017-12-26T03:26:25.611Z,15.60
2017-12-26T03:28:53.584Z,14.55
2017-12-26T03:31:21.500Z,14.90
2017-12-26T03:33:49.482Z,15.32
2017-12-26T03:36:17.463Z,13.55
2017-12-26T03:38:45.363Z,14.82
2017-12-26T03:41:13.406Z,15.52
2017-12-26T03:43:41.346Z,13.40
2017-12-26T03:46:09.410Z,13.93
2017-12-26T03:48:37.309Z,16.00
2017-12-26T03:51:06.043Z,15.32
2017-12-26T03:53:33.963Z,14.50
2017-12-26T03:56:01.928Z,14.65
2017-12-26T03:58:29.842Z,14.63
2017-12-26T04:00:57.794Z,13.75
2017-12-26T04:03:25.716Z,13.75
2017-12-26T04:05:53.709Z,14.73
2017-12-26T04:08:21.624Z,13.80
2017-12-26T04:10:49.589Z,11.95
2017-12-26T04:13:17.515Z,14.10
2017-12-26T04:15:45.505Z,14.35
2017-12-26T04:18:13.438Z,14.57
2017-12-26T04:20:41.418Z,15.07
2017-12-26T04:23:09.333Z,13.70
2017-12-26T04:25:37.298Z,12.93
2017-12-26T04:28:05.241Z,12.05
2017-12-26T04:30:33.241Z,13.60
2017-12-26T04:33:01.148Z,13.90
2017-12-26T04:35:29.128Z,12.68
2017-12-26T04:38:00.779Z,12.82
2017-12-26T04:40:28.699Z,14.23
2017-12-26T04:42:56.666Z,12.73
2017-12-26T04:45:24.644Z,13.95
2017-12-26T04:47:52.623Z,13.43
2017-12-26T04:50:20.538Z,12.55
2017-12-26T04:52:48.504Z,13.77
2017-12-26T04:55:16.443Z,12.57
2017-12-26T04:57:44.434Z,14.87
2017-12-26T05:00:12.351Z,13.20
2017-12-26T05:02:40.327Z,12.45
2017-12-26T05:05:08.252Z,13.13
2017-12-26T05:07:36.423Z,15.38
2017-12-26T05:10:04.381Z,13.02
2017-12-26T05:12:32.381Z,12.43
2017-12-26T05:15:00.313Z,14.38
2017-12-26T05:17:28.318Z,13.50
2017-12-26T05:19:56.237Z,14.07
2017-12-26T05:22:24.233Z,14.10
2017-12-26T05:24:52.176Z,14.30
2017-12-26T05:27:20.177Z,13.68
2017-12-26T05:29:48.118Z,15.35
2017-12-26T05:32:16.123Z,13.30
2017-12-26T05:34:44.048Z,14.50
2017-12-26T05:37:12.073Z,14.23
2017-12-26T05:39:40.019Z,14.38
2017-12-26T05:42:07.975Z,13.18
2017-12-26T05:44:35.984Z,13.90
2017-12-26T05:47:03.961Z,13.18
2017-12-26T05:49:31.954Z,15.18
2017-12-26T05:51:59.884Z,14.57
2017-12-26T05:54:27.888Z,13.90
2017-12-26T05:56:56.593Z,13.85
2017-12-26T05:59:24.589Z,12.77
2017-12-26T06:01:52.545Z,14.00
2017-12-26T06:04:21.052Z,13.60
2017-12-26T06:06:56.218Z,13.80
2017-12-26T06:09:24.206Z,13.05
2017-12-26T06:11:52.161Z,13.77
2017-12-26T06:14:20.153Z,13.82
2017-12-26T06:16:48.853Z,15.90
2017-12-26T06:19:16.827Z,13.65
2017-12-26T06:21:44.749Z,15.23
2017-12-26T06:24:12.745Z,12.70
2017-12-26T06:26:41.442Z,13.73
2017-12-26T06:29:10.198Z,13.30
2017-12-26T06:31:38.109Z,13.60
2017-12-26T06:34:06.085Z,13.40
2017-12-26T06:36:34.014Z,13.65
2017-12-26T06:39:01.969Z,11.52
2017-12-26T06:41:29.899Z,13.73
2017-12-26T06:43:57.819Z,12.32
2017-12-26T06:46:25.833Z,11.10
2017-12-26T06:48:53.778Z,11.15
2017-12-26T06:51:21.744Z,12.45
2017-12-26T06:53:49.663Z,11.20
2017-12-26T06:56:17.625Z,11.43
2017-12-26T06:58:45.546Z,10.00
2017-12-26T07:01:13.565Z,10.95
2017-12-26T07:03:41.473Z,11.05
2017-12-26T07:06:12.832Z,11.70
2017-12-26T07:08:40.737Z,10.60
2017-12-26T07:11:08.716Z,9.30
2017-12-26T07:13:36.641Z,11.40
2017-12-26T07:16:04.601Z,10.45
2017-12-26T07:18:32.530Z,11.05
2017-12-26T07:21:06.043Z,9.95
2017-12-26T07:23:33.956Z,8.95
2017-12-26T07:26:01.938Z,10.43
2017-12-26T07:28:30.670Z,10.05
2017-12-26T07:30:58.633Z,9.10
2017-12-26T07:33:28.073Z,9.93
2017-12-26T07:35:56.034Z,8.75
2017-12-26T07:38:23.955Z,9.15
2017-12-26T07:40:51.905Z,8.75
2017-12-26T07:43:19.820Z,8.88
2017-12-26T07:45:47.799Z,7.37
2017-12-26T07:48:15.788Z,7.20
2017-12-26T07:50:43.733Z,7.60
2017-12-26T07:53:11.716Z,7.15
2017-12-26T07:55:39.607Z,7.40
2017-12-26T07:58:07.563Z,7.47
2017-12-26T08:00:35.481Z,7.28
2017-12-26T08:03:03.452Z,7.65
2017-12-26T08:05:31.394Z,8.90
2017-12-26T08:07:59.362Z,7.55
2017-12-26T08:10:27.321Z,8.07
2017-12-26T08:12:55.338Z,7.18
2017-12-26T08:15:23.304Z,7.15
2017-12-26T08:17:55.827Z,7.40
2017-12-26T08:20:23.747Z,6.60
2017-12-26T08:22:51.732Z,21.70
2017-12-26T08:25:19.630Z,7.25
2017-12-26T08:27:47.602Z,6.70
2017-12-26T08:30:15.531Z,7.62
2017-12-26T08:32:43.533Z,6.93
2017-12-26T08:35:11.478Z,6.87
2017-12-26T08:37:40.277Z,7.05
2017-12-26T08:40:10.367Z,6.82
2017-12-26T08:42:40.056Z,5.85
2017-12-26T08:45:08.512Z,5.97
2017-12-26T08:47:37.854Z,6.18
2017-12-26T08:50:05.912Z,5.93
2017-12-26T08:52:34.972Z,5.50
2017-12-26T08:55:02.859Z,6.37
2017-12-26T08:57:31.319Z,5.07
2017-12-26T08:59:59.786Z,6.05
2017-12-26T09:02:29.375Z,5.12
2017-12-26T09:04:57.321Z,5.60
2017-12-26T09:07:29.179Z,5.55
2017-12-26T09:09:57.122Z,5.82
2017-12-26T09:12:25.009Z,5.22
2017-12-26T09:14:52.975Z,5.03
2017-12-26T09:17:21.217Z,5.25
2017-12-26T09:19:49.154Z,4.65
2017-12-26T09:22:17.824Z,4.85
2017-12-26T09:24:45.784Z,4.62
2017-12-26T09:27:13.695Z,4.68
2017-12-26T09:29:41.624Z,4.68
2017-12-26T09:32:09.515Z,4.82
2017-12-26T09:34:37.465Z,3.67
2017-12-26T09:37:05.453Z,2.95
2017-12-26T09:39:33.392Z,2.87
2017-12-26T09:42:01.312Z,2.20
2017-12-26T09:44:29.256Z,2.03
2017-12-26T09:46:57.144Z,1.40
2017-12-26T09:49:25.861Z,1.17
2017-12-26T09:51:53.752Z,1.62
2017-12-26T09:54:21.683Z,1.00
2017-12-26T09:56:49.565Z,0.80
2017-12-26T09:59:17.532Z,1.00
2017-12-26T10:01:45.442Z,1.45
2017-12-26T10:04:13.356Z,1.08
2017-12-26T10:06:41.443Z,0.75
2017-12-26T10:09:09.352Z,1.10
2017-12-26T10:11:37.315Z,1.40
2017-12-26T10:14:05.207Z,0.80
2017-12-26T10:16:33.191Z,1.00
2017-12-26T10:19:01.093Z,0.70
2017-12-26T10:21:29.036Z,0.85
2017-12-26T10:23:56.958Z,0.70
2017-12-26T10:26:24.947Z,0.75
2017-12-26T10:28:52.882Z,0.70
2017-12-26T10:31:20.882Z,0.98
2017-12-26T10:33:48.822Z,1.15
2017-12-26T10:36:29.955Z,1.20
2017-12-26T10:38:58.678Z,0.70
2017-12-26T10:41:26.685Z,0.68
2017-12-26T10:43:54.618Z,1.00
2017-12-26T10:46:22.645Z,1.00
2017-12-26T10:48:50.576Z,1.05
2017-12-26T10:51:18.565Z,0.90
2017-12-26T10:53:46.505Z,1.15
2017-12-26T10:56:14.491Z,3.12
2017-12-26T10:58:42.432Z,1.37
2017-12-26T11:01:10.464Z,0.70
2017-12-26T11:03:39.461Z,0.93
2017-12-26T11:06:07.553Z,1.10
2017-12-26T11:08:35.495Z,0.80
2017-12-26T11:11:03.429Z,0.88
2017-12-26T11:13:31.421Z,0.88
2017-12-26T11:15:59.791Z,1.10
2017-12-26T11:18:27.775Z,0.98
2017-12-26T11:20:55.727Z,0.90
2017-12-26T11:23:26.740Z,0.80
2017-12-26T11:25:54.835Z,0.77
2017-12-26T11:28:22.895Z,0.77
2017-12-26T11:30:50.892Z,0.88
2017-12-26T11:33:18.929Z,0.95
2017-12-26T11:35:46.922Z,0.60
2017-12-26T11:38:14.878Z,0.60
2017-12-26T11:40:42.945Z,0.60
2017-12-26T11:43:10.965Z,0.60
2017-12-26T11:45:41.129Z,0.50
2017-12-26T11:48:13.057Z,0.93
2017-12-26T11:50:41.042Z,0.50
2017-12-26T11:53:09.817Z,0.60
2017-12-26T11:55:37.851Z,0.60
2017-12-26T11:58:05.910Z,1.00
2017-12-26T12:00:34.105Z,0.50
2017-12-26T12:03:02.104Z,0.70
2017-12-26T12:05:30.595Z,0.95
2017-12-26T12:07:58.637Z,0.60
2017-12-26T12:10:26.651Z,0.65
2017-12-26T12:12:54.734Z,0.60
2017-12-26T12:15:22.724Z,0.70
2017-12-26T12:17:50.864Z,0.60
2017-12-26T12:20:18.889Z,0.70
2017-12-26T12:22:46.849Z,0.60
2017-12-26T12:25:14.918Z,0.60
2017-12-26T12:27:42.980Z,0.50
2017-12-26T12:30:10.994Z,0.90
2017-12-26T12:32:39.001Z,1.00
2017-12-26T12:35:07.034Z,0.60
2017-12-26T12:37:35.069Z,0.80
2017-12-26T12:40:03.703Z,0.70
2017-12-26T12:42:31.671Z,0.83
2017-12-26T12:44:59.707Z,0.70
2017-12-26T12:47:28.926Z,0.97
2017-12-26T12:49:56.973Z,0.75
2017-12-26T12:52:24.915Z,0.57
2017-12-26T12:54:52.922Z,1.00
2017-12-26T12:57:24.179Z,0.65
2017-12-26T12:59:56.002Z,0.80
2017-12-26T13:02:27.104Z,0.80
2017-12-26T13:04:55.890Z,0.40
2017-12-26T13:07:23.861Z,0.73
2017-12-26T13:09:51.879Z,0.70
2017-12-26T13:12:19.900Z,0.77
2017-12-26T13:14:47.991Z,0.88
2017-12-26T13:17:15.978Z,0.60
2017-12-26T13:19:44.019Z,0.80
2017-12-26T13:22:12.028Z,0.60
2017-12-26T13:24:40.088Z,0.55
2017-12-26T13:27:08.786Z,0.60
2017-12-26T13:29:36.800Z,0.75
2017-12-26T13:32:04.856Z,0.70
2017-12-26T13:34:32.865Z,0.95
2017-12-26T13:37:00.908Z,0.50
2017-12-26T13:39:28.967Z,0.93
2017-12-26T13:41:57.055Z,0.50
2017-12-26T13:44:25.162Z,0.73
2017-12-26T13:46:53.202Z,1.10
2017-12-26T13:49:21.214Z,0.70
2017-12-26T13:51:49.351Z,0.80
2017-12-26T13:54:17.362Z,0.88
2017-12-26T13:56:45.370Z,1.02
2017-12-26T13:59:13.347Z,0.60
2017-12-26T14:01:41.326Z,0.75
2017-12-26T14:04:09.310Z,0.75
2017-12-26T14:06:37.458Z,0.85
2017-12-26T14:09:05.455Z,1.37
2017-12-26T14:11:33.457Z,0.70
2017-12-26T14:14:01.414Z,1.00
2017-12-26T14:16:29.393Z,0.75
2017-12-26T14:18:57.339Z,0.68
2017-12-26T14:21:25.323Z,0.95
2017-12-26T14:23:53.305Z,1.05
2017-12-26T14:26:21.297Z,1.00
2017-12-26T14:28:50.056Z,1.10
2017-12-26T14:31:18.046Z,0.60
2017-12-26T14:33:46.813Z,0.75
2017-12-26T14:36:14.871Z,1.00
2017-12-26T14:38:42.871Z,0.60
2017-12-26T14:41:11.627Z,0.93
2017-12-26T14:43:39.665Z,1.00
2017-12-26T14:46:07.629Z,0.88
2017-12-26T14:48:35.610Z,1.15
2017-12-26T14:51:03.575Z,0.68
2017-12-26T14:53:31.594Z,0.60
2017-12-26T14:55:59.560Z,0.88
2017-12-26T14:58:27.607Z,0.60
2017-12-26T15:00:55.618Z,1.08
2017-12-26T15:03:23.637Z,0.70
2017-12-26T15:05:51.734Z,0.60
2017-12-26T15:08:19.707Z,0.73
2017-12-26T15:10:47.625Z,0.60
2017-12-26T15:13:15.586Z,0.60
2017-12-26T15:15:44.312Z,0.57
2017-12-26T15:18:12.467Z,0.70
2017-12-26T15:20:40.408Z,0.45
2017-12-26T15:23:08.484Z,0.70
2017-12-26T15:25:37.191Z,0.50
2017-12-26T15:28:05.449Z,0.77
2017-12-26T15:30:33.410Z,0.82
2017-12-26T15:33:01.434Z,0.73
2017-12-26T15:35:31.559Z,1.10
2017-12-26T15:37:59.523Z,9.52
2017-12-26T15:40:27.552Z,1.20
2017-12-26T15:42:56.350Z,1.10
2017-12-26T15:45:25.011Z,1.20
2017-12-26T15:47:53.068Z,1.73
2017-12-26T15:50:21.246Z,1.00
2017-12-26T15:52:49.199Z,0.77
2017-12-26T15:55:17.169Z,0.90
2017-12-26T15:57:45.210Z,0.90
2017-12-26T16:00:13.322Z,1.12
2017-12-26T16:02:41.935Z,1.73
2017-12-26T16:05:09.912Z,0.80
2017-12-26T16:07:37.905Z,1.12
2017-12-26T16:10:05.939Z,1.80
2017-12-26T16:12:33.849Z,1.02
2017-12-26T16:15:01.801Z,0.90
2017-12-26T16:17:29.752Z,1.17
2017-12-26T16:19:57.675Z,1.00
2017-12-26T16:22:25.670Z,0.85
2017-12-26T16:24:53.638Z,0.77
2017-12-26T16:27:26.396Z,0.80
2017-12-26T16:29:54.357Z,0.88
2017-12-26T16:32:22.281Z,0.80
2017-12-26T16:34:50.238Z,0.90
2017-12-26T16:37:18.209Z,1.58
2017-12-26T16:39:46.226Z,1.00
2017-12-26T16:42:14.910Z,1.02
2017-12-26T16:44:42.877Z,1.25
2017-12-26T16:47:11.575Z,0.77
2017-12-26T16:49:40.272Z,1.23
2017-12-26T16:52:08.225Z,1.30
2017-12-26T16:54:36.178Z,0.90
2017-12-26T16:57:04.228Z,1.20
2017-12-26T16:59:32.133Z,1.80
2017-12-26T17:02:00.099Z,1.00
2017-12-26T17:04:28.771Z,1.17
2017-12-26T17:06:56.732Z,1.40
2017-12-26T17:09:24.655Z,1.40
2017-12-26T17:11:52.718Z,1.40
2017-12-26T17:14:20.641Z,1.05
2017-12-26T17:16:48.650Z,1.58
2017-12-26T17:19:16.540Z,1.65
2017-12-26T17:21:45.281Z,1.75
2017-12-26T17:24:13.708Z,1.80
2017-12-26T17:26:41.705Z,1.50
2017-12-26T17:29:09.950Z,1.58
2017-12-26T17:31:37.930Z,1.50
2017-12-26T17:34:05.846Z,1.50
2017-12-26T17:36:33.811Z,1.70
2017-12-26T17:39:01.701Z,1.27
2017-12-26T17:41:29.647Z,1.35
2017-12-26T17:43:57.536Z,2.22
2017-12-26T17:46:26.348Z,1.50
2017-12-26T17:48:54.248Z,1.90
2017-12-26T17:51:22.142Z,1.90
2017-12-26T17:53:50.902Z,1.83
2017-12-26T17:56:20.045Z,2.78
2017-12-26T17:58:48.760Z,2.70
2017-12-26T18:01:16.740Z,2.75
2017-12-26T18:03:44.671Z,1.98
2017-12-26T18:06:12.589Z,2.28
2017-12-26T18:08:40.585Z,2.00
2017-12-26T18:11:08.533Z,1.70
2017-12-26T18:13:36.496Z,2.35
2017-12-26T18:16:06.450Z,3.22
2017-12-26T18:18:34.408Z,1.83
2017-12-26T18:21:02.285Z,1.73
2017-12-26T18:23:30.296Z,2.20
2017-12-26T18:26:01.795Z,2.05
2017-12-26T18:31:02.668Z,3.08
2017-12-26T18:33:30.654Z,6.97
2017-12-26T18:35:58.545Z,2.67
2017-12-26T18:38:27.347Z,2.97
2017-12-26T18:40:56.586Z,2.90
2017-12-26T18:43:24.592Z,2.60
2017-12-26T18:45:52.476Z,5.95
2017-12-26T18:48:21.343Z,3.50
2017-12-26T18:50:49.358Z,2.33
2017-12-26T18:53:17.263Z,2.22
2017-12-26T18:55:45.227Z,1.70
2017-12-26T18:58:13.146Z,1.83
2017-12-26T19:00:41.350Z,2.08
2017-12-26T19:03:09.232Z,1.92
2017-12-26T19:05:37.208Z,2.05
2017-12-26T19:08:05.114Z,2.12
2017-12-26T19:10:34.308Z,2.05
2017-12-26T19:13:02.295Z,2.05
2017-12-26T19:15:31.012Z,1.83
2017-12-26T19:18:01.901Z,1.85
2017-12-26T19:20:33.071Z,2.90
2017-12-26T19:23:03.791Z,7.95
2017-12-26T19:25:35.949Z,2.20
2017-12-26T19:28:07.544Z,1.65
2017-12-26T19:30:39.538Z,1.70
2017-12-26T19:33:10.034Z,2.05
2017-12-26T19:35:41.480Z,1.00
2017-12-26T19:38:13.571Z,2.30
2017-12-26T19:40:42.188Z,1.40
2017-12-26T19:43:13.277Z,1.73
2017-12-26T19:45:41.605Z,1.37
2017-12-26T19:48:13.432Z,1.67
2017-12-26T19:50:44.046Z,1.70
2017-12-26T19:53:15.310Z,0.98
2017-12-26T19:55:46.906Z,1.60
2017-12-26T19:58:14.987Z,2.70
2017-12-26T20:00:48.006Z,2.30
2017-12-26T20:03:16.907Z,1.20
2017-12-26T20:05:47.757Z,1.40
2017-12-26T20:08:19.950Z,1.30
2017-12-26T20:10:53.694Z,1.08
2017-12-26T20:13:24.874Z,1.35
2017-12-26T20:15:55.819Z,1.62
2017-12-26T20:18:27.100Z,1.55
2017-12-26T20:20:59.082Z,0.95
2017-12-26T20:23:29.801Z,1.95
2017-12-26T20:26:02.296Z,1.00
2017-12-26T20:28:37.034Z,1.62
2017-12-26T20:31:04.905Z,1.20
2017-12-26T20:33:36.849Z,1.30
2017-12-26T20:36:08.145Z,1.62
2017-12-26T20:38:36.275Z,1.55
2017-12-26T20:41:07.968Z,1.25
2017-12-26T20:43:38.261Z,1.33
2017-12-26T20:46:09.565Z,1.20
2017-12-26T20:48:40.408Z,1.33
2017-12-26T20:51:11.763Z,1.48
2017-12-26T20:53:41.404Z,1.17
2017-12-26T20:56:11.704Z,0.88
2017-12-26T20:58:39.591Z,1.25
2017-12-26T21:01:08.110Z,1.33
2017-12-26T21:03:36.053Z,1.75
2017-12-26T21:06:06.327Z,1.23
2017-12-26T21:08:34.300Z,1.55
2017-12-26T21:11:03.002Z,0.90
2017-12-26T21:13:30.956Z,1.02
2017-12-26T21:15:59.716Z,1.15
2017-12-26T21:18:27.676Z,1.12
2017-12-26T21:20:55.639Z,2.35
2017-12-26T21:23:23.572Z,1.55
2017-12-26T21:25:51.503Z,1.23
2017-12-26T21:28:19.501Z,1.45
2017-12-26T21:30:47.388Z,1.45
2017-12-26T21:33:15.446Z,1.25
2017-12-26T21:35:43.851Z,1.48
2017-12-26T21:38:11.822Z,1.45
2017-12-26T21:40:39.720Z,2.00
2017-12-26T21:43:08.432Z,1.85
2017-12-26T21:45:37.599Z,1.33
2017-12-26T21:48:05.687Z,1.70
2017-12-26T21:50:33.579Z,1.48
2017-12-26T21:53:01.462Z,1.50
2017-12-26T21:55:29.388Z,1.50
2017-12-26T21:57:57.275Z,1.80
2017-12-26T22:00:25.224Z,1.50
2017-12-26T22:02:53.870Z,1.25
2017-12-26T22:05:21.807Z,1.60
2017-12-26T22:07:50.471Z,1.37
2017-12-26T22:10:18.394Z,1.65
2017-12-26T22:12:46.292Z,1.58
2017-12-26T22:15:15.020Z,1.15
2017-12-26T22:17:43.129Z,1.67
2017-12-26T22:20:11.064Z,1.73
2017-12-26T22:22:38.948Z,1.50
2017-12-26T22:25:06.885Z,2.10
2017-12-26T22:27:34.818Z,1.87
2017-12-26T22:30:02.769Z,2.83
2017-12-26T22:32:30.646Z,2.87
2017-12-26T22:34:58.581Z,5.03
2017-12-26T22:37:26.475Z,2.72
2017-12-26T22:39:54.409Z,4.43
2017-12-26T22:42:22.297Z,1.98
2017-12-26T22:44:50.236Z,2.58
2017-12-26T22:47:18.175Z,2.85
2017-12-26T22:49:46.109Z,2.30
2017-12-26T22:52:13.988Z,1.67
2017-12-26T22:54:41.921Z,1.95
2017-12-26T22:57:09.850Z,2.08
2017-12-26T22:59:37.743Z,1.62
2017-12-26T23:02:05.688Z,1.70
2017-12-26T23:04:33.564Z,2.20
2017-12-26T23:07:01.630Z,2.30
2017-12-26T23:09:29.520Z,1.70
2017-12-26T23:11:58.217Z,1.87
2017-12-26T23:14:31.595Z,2.17
2017-12-26T23:17:05.335Z,1.73
2017-12-26T23:22:35.441Z,1.60
2017-12-26T23:25:12.948Z,1.92
2017-12-26T23:27:46.485Z,2.17
2017-12-26T23:30:20.094Z,1.55
2017-12-26T23:32:53.724Z,1.80
2017-12-26T23:35:29.473Z,1.80
2017-12-26T23:38:03.033Z,2.50
2017-12-26T23:40:36.580Z,1.67
2017-12-26T23:43:10.132Z,1.80
2017-12-26T23:45:43.754Z,3.62
2017-12-26T23:48:17.242Z,2.40
2017-12-26T23:50:50.859Z,1.98
2017-12-26T23:53:24.399Z,1.62
2017-12-26T23:56:00.749Z,1.60
2017-12-26T23:58:34.137Z,2.30
